sensor_id;sensor_type;location;lat;lon;timestamp;P1;durP1;ratioP1;P2;durP2;ratioP2
50161;SDS011;36061;48.116;11.612;2023-02-28T00:00:19;4.60;;;1.80;;
50161;SDS011;36061;48.116;11.612;2023-02-28T00:02:47;4.40;;;2.40;;
50161;SDS011;36061;48.116;11.612;2023-02-28T00:05:16;2.33;;;1.93;;
50161;SDS011;36061;48.116;11.612;2023-02-28T00:07:46;2.07;;;1.57;;
50161;SDS011;36061;48.116;11.612;2023-02-28T00:10:14;2.80;;;2.17;;
50161;SDS011;36061;48.116;11.612;2023-02-28T00:12:46;2.93;;;1.80;;
50161;SDS011;36061;48.116;11.612;2023-02-28T00:15:29;2.30;;;2.03;;
50161;SDS011;36061;48.116;11.612;2023-02-28T00:18:05;4.40;;;1.60;;
50161;SDS011;36061;48.116;11.612;2023-02-28T00:20:46;5.03;;;1.97;;
50161;SDS011;36061;48.116;11.612;2023-02-28T00:23:26;3.17;;;2.07;;
50161;SDS011;36061;48.116;11.612;2023-02-28T00:26:12;4.03;;;1.53;;
50161;SDS011;36061;48.116;11.612;2023-02-28T00:28:58;3.70;;;2.30;;
50161;SDS011;36061;48.116;11.612;2023-02-28T00:31:25;5.63;;;2.40;;
50161;SDS011;36061;48.116;11.612;2023-02-28T00:33:53;2.93;;;1.83;;
50161;SDS011;36061;48.116;11.612;2023-02-28T00:36:20;3.77;;;2.47;;
50161;SDS011;36061;48.116;11.612;2023-02-28T00:38:47;2.73;;;2.03;;
50161;SDS011;36061;48.116;11.612;2023-02-28T00:41:14;3.80;;;2.23;;
50161;SDS011;36061;48.116;11.612;2023-02-28T00:43:42;3.30;;;2.20;;
50161;SDS011;36061;48.116;11.612;2023-02-28T00:46:11;2.40;;;2.20;;
50161;SDS011;36061;48.116;11.612;2023-02-28T00:48:38;3.57;;;1.63;;
50161;SDS011;36061;48.116;11.612;2023-02-28T00:51:06;2.97;;;2.03;;
50161;SDS011;36061;48.116;11.612;2023-02-28T00:53:33;3.13;;;2.20;;
50161;SDS011;36061;48.116;11.612;2023-02-28T00:56:00;3.47;;;1.67;;
50161;SDS011;36061;48.116;11.612;2023-02-28T00:58:29;4.03;;;2.17;;
50161;SDS011;36061;48.116;11.612;2023-02-28T01:00:56;5.37;;;2.10;;
50161;SDS011;36061;48.116;11.612;2023-02-28T01:03:24;2.53;;;1.93;;
50161;SDS011;36061;48.116;11.612;2023-02-28T01:05:52;2.90;;;2.00;;
50161;SDS011;36061;48.116;11.612;2023-02-28T01:08:19;1.90;;;1.70;;
50161;SDS011;36061;48.116;11.612;2023-02-28T01:10:46;2.63;;;1.60;;
50161;SDS011;36061;48.116;11.612;2023-02-28T01:13:14;2.17;;;1.70;;
50161;SDS011;36061;48.116;11.612;2023-02-28T01:15:43;2.90;;;1.97;;
50161;SDS011;36061;48.116;11.612;2023-02-28T01:18:14;5.00;;;1.70;;
50161;SDS011;36061;48.116;11.612;2023-02-28T01:20:45;3.60;;;2.07;;
50161;SDS011;36061;48.116;11.612;2023-02-28T01:23:27;4.57;;;1.80;;
50161;SDS011;36061;48.116;11.612;2023-02-28T01:25:54;3.90;;;2.10;;
50161;SDS011;36061;48.116;11.612;2023-02-28T01:28:21;2.23;;;1.73;;
50161;SDS011;36061;48.116;11.612;2023-02-28T01:30:49;3.30;;;2.03;;
50161;SDS011;36061;48.116;11.612;2023-02-28T01:33:17;2.13;;;1.87;;
50161;SDS011;36061;48.116;11.612;2023-02-28T01:35:45;3.87;;;2.37;;
50161;SDS011;36061;48.116;11.612;2023-02-28T01:38:12;3.23;;;2.00;;
50161;SDS011;36061;48.116;11.612;2023-02-28T01:40:40;2.57;;;1.93;;
50161;SDS011;36061;48.116;11.612;2023-02-28T01:43:09;2.70;;;1.80;;
50161;SDS011;36061;48.116;11.612;2023-02-28T01:45:47;2.83;;;1.93;;
50161;SDS011;36061;48.116;11.612;2023-02-28T01:48:15;3.23;;;1.90;;
50161;SDS011;36061;48.116;11.612;2023-02-28T01:50:43;3.50;;;2.40;;
50161;SDS011;36061;48.116;11.612;2023-02-28T01:53:13;4.23;;;2.07;;
50161;SDS011;36061;48.116;11.612;2023-02-28T01:55:45;3.43;;;2.20;;
50161;SDS011;36061;48.116;11.612;2023-02-28T01:58:15;2.40;;;2.10;;
50161;SDS011;36061;48.116;11.612;2023-02-28T02:00:42;2.00;;;1.73;;
50161;SDS011;36061;48.116;11.612;2023-02-28T02:03:11;4.73;;;2.30;;
50161;SDS011;36061;48.116;11.612;2023-02-28T02:05:41;3.43;;;2.30;;
50161;SDS011;36061;48.116;11.612;2023-02-28T02:08:15;7.20;;;1.93;;
50161;SDS011;36061;48.116;11.612;2023-02-28T02:10:45;1.93;;;1.60;;
50161;SDS011;36061;48.116;11.612;2023-02-28T02:13:23;2.57;;;2.37;;
50161;SDS011;36061;48.116;11.612;2023-02-28T02:16:02;2.23;;;1.90;;
50161;SDS011;36061;48.116;11.612;2023-02-28T02:18:40;3.37;;;1.87;;
50161;SDS011;36061;48.116;11.612;2023-02-28T02:24:44;2.70;;;2.07;;
50161;SDS011;36061;48.116;11.612;2023-02-28T02:27:42;4.53;;;2.47;;
50161;SDS011;36061;48.116;11.612;2023-02-28T02:33:27;4.57;;;2.30;;
50161;SDS011;36061;48.116;11.612;2023-02-28T02:36:09;3.77;;;2.03;;
50161;SDS011;36061;48.116;11.612;2023-02-28T02:38:47;3.13;;;2.13;;
50161;SDS011;36061;48.116;11.612;2023-02-28T02:41:18;3.33;;;2.07;;
50161;SDS011;36061;48.116;11.612;2023-02-28T02:43:51;3.07;;;2.20;;
50161;SDS011;36061;48.116;11.612;2023-02-28T02:46:25;3.33;;;1.87;;
50161;SDS011;36061;48.116;11.612;2023-02-28T02:48:58;3.97;;;2.10;;
50161;SDS011;36061;48.116;11.612;2023-02-28T02:51:30;4.23;;;2.27;;
50161;SDS011;36061;48.116;11.612;2023-02-28T02:54:02;3.83;;;2.53;;
50161;SDS011;36061;48.116;11.612;2023-02-28T02:56:34;2.93;;;2.20;;
50161;SDS011;36061;48.116;11.612;2023-02-28T02:59:08;2.67;;;2.00;;
50161;SDS011;36061;48.116;11.612;2023-02-28T03:01:39;2.67;;;2.47;;
50161;SDS011;36061;48.116;11.612;2023-02-28T03:04:08;4.77;;;2.67;;
50161;SDS011;36061;48.116;11.612;2023-02-28T03:06:42;4.40;;;2.33;;
50161;SDS011;36061;48.116;11.612;2023-02-28T03:09:21;2.93;;;2.13;;
50161;SDS011;36061;48.116;11.612;2023-02-28T03:11:48;2.27;;;1.67;;
50161;SDS011;36061;48.116;11.612;2023-02-28T03:14:23;4.10;;;2.20;;
50161;SDS011;36061;48.116;11.612;2023-02-28T03:17:00;4.20;;;2.37;;
50161;SDS011;36061;48.116;11.612;2023-02-28T03:22:38;2.97;;;2.10;;
50161;SDS011;36061;48.116;11.612;2023-02-28T03:25:20;2.67;;;2.03;;
50161;SDS011;36061;48.116;11.612;2023-02-28T03:27:55;3.00;;;2.00;;
50161;SDS011;36061;48.116;11.612;2023-02-28T03:30:29;3.87;;;2.47;;
50161;SDS011;36061;48.116;11.612;2023-02-28T03:33:03;5.23;;;2.73;;
50161;SDS011;36061;48.116;11.612;2023-02-28T03:35:35;3.03;;;2.23;;
50161;SDS011;36061;48.116;11.612;2023-02-28T03:38:07;4.77;;;2.27;;
50161;SDS011;36061;48.116;11.612;2023-02-28T03:40:40;7.20;;;2.57;;
50161;SDS011;36061;48.116;11.612;2023-02-28T03:43:12;3.43;;;2.17;;
50161;SDS011;36061;48.116;11.612;2023-02-28T03:45:43;3.27;;;2.30;;
50161;SDS011;36061;48.116;11.612;2023-02-28T03:48:13;3.63;;;2.10;;
50161;SDS011;36061;48.116;11.612;2023-02-28T03:50:44;4.57;;;2.33;;
50161;SDS011;36061;48.116;11.612;2023-02-28T03:53:16;3.90;;;2.17;;
50161;SDS011;36061;48.116;11.612;2023-02-28T03:55:48;4.50;;;3.43;;
50161;SDS011;36061;48.116;11.612;2023-02-28T03:58:20;5.63;;;2.43;;
50161;SDS011;36061;48.116;11.612;2023-02-28T04:00:55;3.87;;;2.50;;
50161;SDS011;36061;48.116;11.612;2023-02-28T04:03:33;6.20;;;2.63;;
50161;SDS011;36061;48.116;11.612;2023-02-28T04:06:02;3.40;;;2.57;;
50161;SDS011;36061;48.116;11.612;2023-02-28T04:08:32;4.57;;;2.63;;
50161;SDS011;36061;48.116;11.612;2023-02-28T04:11:00;6.00;;;2.60;;
50161;SDS011;36061;48.116;11.612;2023-02-28T04:13:31;4.30;;;2.70;;
50161;SDS011;36061;48.116;11.612;2023-02-28T04:15:58;5.10;;;3.07;;
50161;SDS011;36061;48.116;11.612;2023-02-28T04:18:25;5.40;;;2.90;;
50161;SDS011;36061;48.116;11.612;2023-02-28T04:21:05;4.83;;;3.50;;
50161;SDS011;36061;48.116;11.612;2023-02-28T04:23:53;4.30;;;2.87;;
50161;SDS011;36061;48.116;11.612;2023-02-28T04:26:29;5.03;;;3.23;;
50161;SDS011;36061;48.116;11.612;2023-02-28T04:28:57;4.77;;;2.90;;
50161;SDS011;36061;48.116;11.612;2023-02-28T04:31:26;5.20;;;3.17;;
50161;SDS011;36061;48.116;11.612;2023-02-28T04:33:59;4.23;;;3.23;;
50161;SDS011;36061;48.116;11.612;2023-02-28T04:36:28;5.10;;;2.93;;
50161;SDS011;36061;48.116;11.612;2023-02-28T04:38:58;4.97;;;3.40;;
50161;SDS011;36061;48.116;11.612;2023-02-28T04:41:27;6.03;;;3.43;;
50161;SDS011;36061;48.116;11.612;2023-02-28T04:43:58;5.50;;;3.50;;
50161;SDS011;36061;48.116;11.612;2023-02-28T04:46:29;4.43;;;3.30;;
50161;SDS011;36061;48.116;11.612;2023-02-28T04:48:59;6.03;;;3.53;;
50161;SDS011;36061;48.116;11.612;2023-02-28T04:51:38;6.23;;;3.20;;
50161;SDS011;36061;48.116;11.612;2023-02-28T04:54:19;5.57;;;3.63;;
50161;SDS011;36061;48.116;11.612;2023-02-28T04:56:59;7.87;;;3.40;;
50161;SDS011;36061;48.116;11.612;2023-02-28T04:59:36;6.27;;;3.37;;
50161;SDS011;36061;48.116;11.612;2023-02-28T05:02:05;5.33;;;3.50;;
50161;SDS011;36061;48.116;11.612;2023-02-28T05:04:43;5.07;;;3.73;;
50161;SDS011;36061;48.116;11.612;2023-02-28T05:07:14;5.77;;;3.57;;
50161;SDS011;36061;48.116;11.612;2023-02-28T05:09:46;8.17;;;3.80;;
50161;SDS011;36061;48.116;11.612;2023-02-28T05:12:14;6.80;;;3.67;;
50161;SDS011;36061;48.116;11.612;2023-02-28T05:14:42;7.50;;;3.60;;
50161;SDS011;36061;48.116;11.612;2023-02-28T05:17:09;9.10;;;4.77;;
50161;SDS011;36061;48.116;11.612;2023-02-28T05:19:36;5.90;;;3.80;;
50161;SDS011;36061;48.116;11.612;2023-02-28T05:22:04;5.13;;;3.80;;
50161;SDS011;36061;48.116;11.612;2023-02-28T05:24:39;6.10;;;3.90;;
50161;SDS011;36061;48.116;11.612;2023-02-28T05:27:09;6.70;;;4.33;;
50161;SDS011;36061;48.116;11.612;2023-02-28T05:29:36;5.70;;;4.03;;
50161;SDS011;36061;48.116;11.612;2023-02-28T05:32:08;6.23;;;4.23;;
50161;SDS011;36061;48.116;11.612;2023-02-28T05:34:36;7.40;;;4.37;;
50161;SDS011;36061;48.116;11.612;2023-02-28T05:37:03;7.57;;;4.33;;
50161;SDS011;36061;48.116;11.612;2023-02-28T05:39:31;8.03;;;4.67;;
50161;SDS011;36061;48.116;11.612;2023-02-28T05:41:58;9.13;;;5.47;;
50161;SDS011;36061;48.116;11.612;2023-02-28T05:44:27;7.80;;;4.33;;
50161;SDS011;36061;48.116;11.612;2023-02-28T05:46:54;7.50;;;5.40;;
50161;SDS011;36061;48.116;11.612;2023-02-28T05:49:21;7.27;;;4.60;;
50161;SDS011;36061;48.116;11.612;2023-02-28T05:51:49;11.98;;;7.47;;
50161;SDS011;36061;48.116;11.612;2023-02-28T05:54:16;9.23;;;6.40;;
50161;SDS011;36061;48.116;11.612;2023-02-28T05:56:43;8.10;;;4.23;;
50161;SDS011;36061;48.116;11.612;2023-02-28T05:59:11;8.93;;;5.90;;
50161;SDS011;36061;48.116;11.612;2023-02-28T06:01:40;9.07;;;5.20;;
50161;SDS011;36061;48.116;11.612;2023-02-28T06:04:13;8.27;;;5.30;;
50161;SDS011;36061;48.116;11.612;2023-02-28T06:06:43;8.70;;;5.13;;
50161;SDS011;36061;48.116;11.612;2023-02-28T06:09:10;8.27;;;5.27;;
50161;SDS011;36061;48.116;11.612;2023-02-28T06:11:37;9.17;;;5.60;;
50161;SDS011;36061;48.116;11.612;2023-02-28T06:14:04;11.27;;;5.87;;
50161;SDS011;36061;48.116;11.612;2023-02-28T06:16:32;10.33;;;5.13;;
50161;SDS011;36061;48.116;11.612;2023-02-28T06:19:02;9.70;;;5.90;;
50161;SDS011;36061;48.116;11.612;2023-02-28T06:21:30;9.60;;;6.23;;
50161;SDS011;36061;48.116;11.612;2023-02-28T06:23:58;7.73;;;5.80;;
50161;SDS011;36061;48.116;11.612;2023-02-28T06:26:26;7.63;;;5.63;;
50161;SDS011;36061;48.116;11.612;2023-02-28T06:28:53;10.63;;;6.00;;
50161;SDS011;36061;48.116;11.612;2023-02-28T06:31:21;12.17;;;5.70;;
50161;SDS011;36061;48.116;11.612;2023-02-28T06:33:49;10.90;;;6.53;;
50161;SDS011;36061;48.116;11.612;2023-02-28T06:36:18;12.90;;;6.90;;
50161;SDS011;36061;48.116;11.612;2023-02-28T06:38:45;10.87;;;5.73;;
50161;SDS011;36061;48.116;11.612;2023-02-28T06:41:16;9.90;;;5.10;;
50161;SDS011;36061;48.116;11.612;2023-02-28T06:43:43;8.20;;;5.50;;
50161;SDS011;36061;48.116;11.612;2023-02-28T06:46:12;9.63;;;4.93;;
50161;SDS011;36061;48.116;11.612;2023-02-28T06:48:40;12.90;;;5.90;;
50161;SDS011;36061;48.116;11.612;2023-02-28T06:51:09;9.20;;;6.20;;
50161;SDS011;36061;48.116;11.612;2023-02-28T06:53:40;11.03;;;6.17;;
50161;SDS011;36061;48.116;11.612;2023-02-28T06:56:09;10.93;;;7.13;;
50161;SDS011;36061;48.116;11.612;2023-02-28T06:58:38;8.57;;;5.23;;
50161;SDS011;36061;48.116;11.612;2023-02-28T07:01:06;11.10;;;6.37;;
50161;SDS011;36061;48.116;11.612;2023-02-28T07:03:34;9.83;;;5.27;;
50161;SDS011;36061;48.116;11.612;2023-02-28T07:06:02;11.77;;;6.63;;
50161;SDS011;36061;48.116;11.612;2023-02-28T07:08:31;9.47;;;5.57;;
50161;SDS011;36061;48.116;11.612;2023-02-28T07:10:59;10.77;;;6.60;;
50161;SDS011;36061;48.116;11.612;2023-02-28T07:13:27;13.00;;;6.67;;
50161;SDS011;36061;48.116;11.612;2023-02-28T07:15:55;10.67;;;6.80;;
50161;SDS011;36061;48.116;11.612;2023-02-28T07:18:23;10.90;;;6.30;;
50161;SDS011;36061;48.116;11.612;2023-02-28T07:20:51;8.07;;;5.37;;
50161;SDS011;36061;48.116;11.612;2023-02-28T07:23:18;12.10;;;7.00;;
50161;SDS011;36061;48.116;11.612;2023-02-28T07:25:46;10.00;;;5.70;;
50161;SDS011;36061;48.116;11.612;2023-02-28T07:28:15;10.10;;;4.97;;
50161;SDS011;36061;48.116;11.612;2023-02-28T07:30:42;8.20;;;5.73;;
50161;SDS011;36061;48.116;11.612;2023-02-28T07:33:09;13.73;;;9.15;;
50161;SDS011;36061;48.116;11.612;2023-02-28T07:35:37;11.50;;;6.97;;
50161;SDS011;36061;48.116;11.612;2023-02-28T07:38:04;12.00;;;6.73;;
50161;SDS011;36061;48.116;11.612;2023-02-28T07:40:32;9.50;;;6.47;;
50161;SDS011;36061;48.116;11.612;2023-02-28T07:43:00;15.77;;;6.97;;
50161;SDS011;36061;48.116;11.612;2023-02-28T07:45:29;11.07;;;6.23;;
50161;SDS011;36061;48.116;11.612;2023-02-28T07:47:57;12.17;;;6.73;;
50161;SDS011;36061;48.116;11.612;2023-02-28T07:50:25;11.63;;;6.87;;
50161;SDS011;36061;48.116;11.612;2023-02-28T07:52:54;14.70;;;6.67;;
50161;SDS011;36061;48.116;11.612;2023-02-28T07:55:21;13.03;;;7.13;;
50161;SDS011;36061;48.116;11.612;2023-02-28T07:57:48;10.47;;;6.40;;
50161;SDS011;36061;48.116;11.612;2023-02-28T08:00:16;11.83;;;6.00;;
50161;SDS011;36061;48.116;11.612;2023-02-28T08:02:45;10.77;;;7.27;;
50161;SDS011;36061;48.116;11.612;2023-02-28T08:05:13;14.07;;;6.07;;
50161;SDS011;36061;48.116;11.612;2023-02-28T08:07:41;11.63;;;6.40;;
50161;SDS011;36061;48.116;11.612;2023-02-28T08:10:09;8.53;;;5.47;;
50161;SDS011;36061;48.116;11.612;2023-02-28T08:12:36;13.07;;;7.77;;
50161;SDS011;36061;48.116;11.612;2023-02-28T08:15:05;13.30;;;6.97;;
50161;SDS011;36061;48.116;11.612;2023-02-28T08:17:34;10.50;;;6.57;;
50161;SDS011;36061;48.116;11.612;2023-02-28T08:20:04;13.23;;;6.23;;
50161;SDS011;36061;48.116;11.612;2023-02-28T08:22:32;12.27;;;6.67;;
50161;SDS011;36061;48.116;11.612;2023-02-28T08:24:59;11.67;;;7.33;;
50161;SDS011;36061;48.116;11.612;2023-02-28T08:27:27;11.73;;;7.33;;
50161;SDS011;36061;48.116;11.612;2023-02-28T08:29:55;13.23;;;7.07;;
50161;SDS011;36061;48.116;11.612;2023-02-28T08:32:22;12.37;;;7.20;;
50161;SDS011;36061;48.116;11.612;2023-02-28T08:34:50;16.83;;;6.93;;
50161;SDS011;36061;48.116;11.612;2023-02-28T08:37:19;13.17;;;7.70;;
50161;SDS011;36061;48.116;11.612;2023-02-28T08:39:46;16.77;;;8.23;;
50161;SDS011;36061;48.116;11.612;2023-02-28T08:42:13;9.50;;;6.40;;
50161;SDS011;36061;48.116;11.612;2023-02-28T08:44:40;10.33;;;6.40;;
50161;SDS011;36061;48.116;11.612;2023-02-28T08:47:07;12.30;;;6.70;;
50161;SDS011;36061;48.116;11.612;2023-02-28T08:49:35;14.40;;;7.20;;
50161;SDS011;36061;48.116;11.612;2023-02-28T08:52:03;11.93;;;7.43;;
50161;SDS011;36061;48.116;11.612;2023-02-28T08:54:31;12.93;;;8.17;;
50161;SDS011;36061;48.116;11.612;2023-02-28T08:56:59;12.23;;;7.27;;
50161;SDS011;36061;48.116;11.612;2023-02-28T08:59:27;14.60;;;7.83;;
50161;SDS011;36061;48.116;11.612;2023-02-28T09:01:54;11.40;;;7.87;;
50161;SDS011;36061;48.116;11.612;2023-02-28T09:04:21;10.90;;;7.07;;
50161;SDS011;36061;48.116;11.612;2023-02-28T09:06:48;12.77;;;7.33;;
50161;SDS011;36061;48.116;11.612;2023-02-28T09:09:16;11.10;;;7.03;;
50161;SDS011;36061;48.116;11.612;2023-02-28T09:11:44;10.20;;;6.10;;
50161;SDS011;36061;48.116;11.612;2023-02-28T09:14:11;14.70;;;7.17;;
50161;SDS011;36061;48.116;11.612;2023-02-28T09:16:39;15.20;;;7.17;;
50161;SDS011;36061;48.116;11.612;2023-02-28T09:19:06;14.20;;;7.33;;
50161;SDS011;36061;48.116;11.612;2023-02-28T09:21:36;14.77;;;7.07;;
50161;SDS011;36061;48.116;11.612;2023-02-28T09:24:03;14.20;;;7.40;;
50161;SDS011;36061;48.116;11.612;2023-02-28T09:26:31;15.47;;;7.87;;
50161;SDS011;36061;48.116;11.612;2023-02-28T09:29:00;16.07;;;7.83;;
50161;SDS011;36061;48.116;11.612;2023-02-28T09:31:29;14.33;;;7.30;;
50161;SDS011;36061;48.116;11.612;2023-02-28T09:33:56;12.63;;;7.93;;
50161;SDS011;36061;48.116;11.612;2023-02-28T09:36:25;15.00;;;7.17;;
50161;SDS011;36061;48.116;11.612;2023-02-28T09:38:53;18.03;;;7.30;;
50161;SDS011;36061;48.116;11.612;2023-02-28T09:41:22;11.17;;;6.90;;
50161;SDS011;36061;48.116;11.612;2023-02-28T09:43:51;14.07;;;7.20;;
50161;SDS011;36061;48.116;11.612;2023-02-28T09:46:27;14.00;;;7.20;;
50161;SDS011;36061;48.116;11.612;2023-02-28T09:48:57;13.83;;;7.33;;
50161;SDS011;36061;48.116;11.612;2023-02-28T09:51:28;13.50;;;7.07;;
50161;SDS011;36061;48.116;11.612;2023-02-28T09:54:01;11.87;;;7.53;;
50161;SDS011;36061;48.116;11.612;2023-02-28T09:56:30;11.93;;;7.27;;
50161;SDS011;36061;48.116;11.612;2023-02-28T09:59:00;16.27;;;7.17;;
50161;SDS011;36061;48.116;11.612;2023-02-28T10:01:34;10.50;;;7.47;;
50161;SDS011;36061;48.116;11.612;2023-02-28T10:04:07;16.50;;;8.50;;
50161;SDS011;36061;48.116;11.612;2023-02-28T10:06:44;13.40;;;7.20;;
50161;SDS011;36061;48.116;11.612;2023-02-28T10:09:14;13.47;;;7.70;;
50161;SDS011;36061;48.116;11.612;2023-02-28T10:11:47;13.50;;;7.70;;
50161;SDS011;36061;48.116;11.612;2023-02-28T10:14:17;11.77;;;7.37;;
50161;SDS011;36061;48.116;11.612;2023-02-28T10:16:48;11.97;;;6.83;;
50161;SDS011;36061;48.116;11.612;2023-02-28T10:19:22;13.13;;;7.57;;
50161;SDS011;36061;48.116;11.612;2023-02-28T10:21:55;15.77;;;7.97;;
50161;SDS011;36061;48.116;11.612;2023-02-28T10:24:27;15.93;;;7.93;;
50161;SDS011;36061;48.116;11.612;2023-02-28T10:26:58;15.23;;;7.67;;
50161;SDS011;36061;48.116;11.612;2023-02-28T10:29:27;12.47;;;7.13;;
50161;SDS011;36061;48.116;11.612;2023-02-28T10:31:59;11.63;;;7.13;;
50161;SDS011;36061;48.116;11.612;2023-02-28T10:34:29;13.07;;;7.33;;
50161;SDS011;36061;48.116;11.612;2023-02-28T10:36:57;12.70;;;7.27;;
50161;SDS011;36061;48.116;11.612;2023-02-28T10:39:39;10.57;;;6.87;;
50161;SDS011;36061;48.116;11.612;2023-02-28T10:42:19;16.43;;;8.23;;
50161;SDS011;36061;48.116;11.612;2023-02-28T10:45:09;8.27;;;5.60;;
50161;SDS011;36061;48.116;11.612;2023-02-28T10:47:40;17.40;;;8.20;;
50161;SDS011;36061;48.116;11.612;2023-02-28T10:50:27;21.40;;;7.30;;
50161;SDS011;36061;48.116;11.612;2023-02-28T10:53:07;18.00;;;8.30;;
50161;SDS011;36061;48.116;11.612;2023-02-28T10:55:42;9.93;;;6.73;;
50161;SDS011;36061;48.116;11.612;2023-02-28T10:58:22;11.73;;;7.63;;
50161;SDS011;36061;48.116;11.612;2023-02-28T11:00:51;15.47;;;7.60;;
50161;SDS011;36061;48.116;11.612;2023-02-28T11:03:29;14.20;;;7.13;;
50161;SDS011;36061;48.116;11.612;2023-02-28T11:06:03;11.30;;;7.43;;
50161;SDS011;36061;48.116;11.612;2023-02-28T11:08:32;11.00;;;6.87;;
50161;SDS011;36061;48.116;11.612;2023-02-28T11:11:01;10.63;;;6.63;;
50161;SDS011;36061;48.116;11.612;2023-02-28T11:13:33;11.67;;;7.70;;
50161;SDS011;36061;48.116;11.612;2023-02-28T11:16:03;11.27;;;6.97;;
50161;SDS011;36061;48.116;11.612;2023-02-28T11:18:36;12.03;;;7.03;;
50161;SDS011;36061;48.116;11.612;2023-02-28T11:21:06;13.67;;;8.27;;
50161;SDS011;36061;48.116;11.612;2023-02-28T11:23:36;13.47;;;8.10;;
50161;SDS011;36061;48.116;11.612;2023-02-28T11:26:07;15.37;;;8.37;;
50161;SDS011;36061;48.116;11.612;2023-02-28T11:28:37;11.20;;;7.00;;
50161;SDS011;36061;48.116;11.612;2023-02-28T11:31:14;15.00;;;7.70;;
50161;SDS011;36061;48.116;11.612;2023-02-28T11:33:47;15.17;;;7.27;;
50161;SDS011;36061;48.116;11.612;2023-02-28T11:36:17;11.53;;;6.77;;
50161;SDS011;36061;48.116;11.612;2023-02-28T11:38:47;12.97;;;7.90;;
50161;SDS011;36061;48.116;11.612;2023-02-28T11:41:26;12.10;;;6.70;;
50161;SDS011;36061;48.116;11.612;2023-02-28T11:44:03;12.20;;;6.77;;
50161;SDS011;36061;48.116;11.612;2023-02-28T11:46:38;10.83;;;7.27;;
50161;SDS011;36061;48.116;11.612;2023-02-28T11:49:18;11.50;;;7.47;;
50161;SDS011;36061;48.116;11.612;2023-02-28T11:51:57;10.13;;;6.73;;
50161;SDS011;36061;48.116;11.612;2023-02-28T11:54:31;14.20;;;7.47;;
50161;SDS011;36061;48.116;11.612;2023-02-28T11:57:14;16.77;;;9.45;;
50161;SDS011;36061;48.116;11.612;2023-02-28T11:59:59;11.50;;;7.10;;
50161;SDS011;36061;48.116;11.612;2023-02-28T12:02:41;10.30;;;6.80;;
50161;SDS011;36061;48.116;11.612;2023-02-28T12:05:27;14.13;;;7.57;;
50161;SDS011;36061;48.116;11.612;2023-02-28T12:08:02;10.73;;;6.93;;
50161;SDS011;36061;48.116;11.612;2023-02-28T12:10:43;14.33;;;7.80;;
50161;SDS011;36061;48.116;11.612;2023-02-28T12:13:20;19.60;;;8.27;;
50161;SDS011;36061;48.116;11.612;2023-02-28T12:15:59;12.67;;;7.13;;
50161;SDS011;36061;48.116;11.612;2023-02-28T12:18:52;13.27;;;7.30;;
50161;SDS011;36061;48.116;11.612;2023-02-28T12:21:30;18.20;;;7.60;;
50161;SDS011;36061;48.116;11.612;2023-02-28T12:27:10;9.77;;;6.30;;
50161;SDS011;36061;48.116;11.612;2023-02-28T12:29:43;11.90;;;7.57;;
50161;SDS011;36061;48.116;11.612;2023-02-28T12:32:16;11.67;;;6.97;;
50161;SDS011;36061;48.116;11.612;2023-02-28T12:34:49;10.70;;;6.73;;
50161;SDS011;36061;48.116;11.612;2023-02-28T12:37:22;10.13;;;6.27;;
50161;SDS011;36061;48.116;11.612;2023-02-28T12:39:55;12.30;;;7.77;;
50161;SDS011;36061;48.116;11.612;2023-02-28T12:42:29;10.23;;;6.80;;
50161;SDS011;36061;48.116;11.612;2023-02-28T12:44:59;13.63;;;7.10;;
50161;SDS011;36061;48.116;11.612;2023-02-28T12:47:29;13.63;;;8.37;;
50161;SDS011;36061;48.116;11.612;2023-02-28T12:49:58;13.00;;;7.60;;
50161;SDS011;36061;48.116;11.612;2023-02-28T12:52:31;12.77;;;6.87;;
50161;SDS011;36061;48.116;11.612;2023-02-28T12:55:08;8.50;;;5.90;;
50161;SDS011;36061;48.116;11.612;2023-02-28T12:57:44;8.40;;;5.77;;
50161;SDS011;36061;48.116;11.612;2023-02-28T13:00:17;11.17;;;7.60;;
50161;SDS011;36061;48.116;11.612;2023-02-28T13:06:09;11.87;;;7.53;;
50161;SDS011;36061;48.116;11.612;2023-02-28T13:09:05;11.00;;;6.83;;
50161;SDS011;36061;48.116;11.612;2023-02-28T13:11:39;11.10;;;6.40;;
50161;SDS011;36061;48.116;11.612;2023-02-28T13:14:18;10.10;;;6.10;;
50161;SDS011;36061;48.116;11.612;2023-02-28T13:16:55;8.67;;;5.97;;
50161;SDS011;36061;48.116;11.612;2023-02-28T13:19:26;10.70;;;6.83;;
50161;SDS011;36061;48.116;11.612;2023-02-28T13:21:55;9.03;;;6.00;;
50161;SDS011;36061;48.116;11.612;2023-02-28T13:24:37;8.50;;;6.47;;
50161;SDS011;36061;48.116;11.612;2023-02-28T13:27:22;9.17;;;6.30;;
50161;SDS011;36061;48.116;11.612;2023-02-28T13:38:49;9.83;;;6.33;;
50161;SDS011;36061;48.116;11.612;2023-02-28T13:44:13;12.37;;;7.57;;
50161;SDS011;36061;48.116;11.612;2023-02-28T13:49:47;11.87;;;6.17;;
50161;SDS011;36061;48.116;11.612;2023-02-28T13:52:16;12.53;;;6.90;;
50161;SDS011;36061;48.116;11.612;2023-02-28T13:54:52;9.50;;;6.40;;
50161;SDS011;36061;48.116;11.612;2023-02-28T13:57:29;10.23;;;7.03;;
50161;SDS011;36061;48.116;11.612;2023-02-28T14:00:14;10.50;;;6.60;;
50161;SDS011;36061;48.116;11.612;2023-02-28T14:03:01;8.97;;;5.97;;
50161;SDS011;36061;48.116;11.612;2023-02-28T14:05:42;13.20;;;7.63;;
50161;SDS011;36061;48.116;11.612;2023-02-28T14:08:12;10.97;;;6.97;;
50161;SDS011;36061;48.116;11.612;2023-02-28T14:10:44;10.47;;;7.63;;
50161;SDS011;36061;48.116;11.612;2023-02-28T14:16:11;9.50;;;6.10;;
50161;SDS011;36061;48.116;11.612;2023-02-28T14:18:40;8.60;;;6.30;;
50161;SDS011;36061;48.116;11.612;2023-02-28T14:21:16;9.83;;;6.70;;
50161;SDS011;36061;48.116;11.612;2023-02-28T14:29:56;9.30;;;6.53;;
50161;SDS011;36061;48.116;11.612;2023-02-28T14:32:41;11.13;;;6.63;;
50161;SDS011;36061;48.116;11.612;2023-02-28T14:35:18;16.67;;;7.13;;
50161;SDS011;36061;48.116;11.612;2023-02-28T14:37:52;12.93;;;7.17;;
50161;SDS011;36061;48.116;11.612;2023-02-28T14:40:21;9.50;;;6.03;;
50161;SDS011;36061;48.116;11.612;2023-02-28T14:42:54;15.37;;;6.40;;
50161;SDS011;36061;48.116;11.612;2023-02-28T14:45:25;8.33;;;6.20;;
50161;SDS011;36061;48.116;11.612;2023-02-28T14:47:55;11.90;;;5.97;;
50161;SDS011;36061;48.116;11.612;2023-02-28T14:50:26;10.53;;;5.97;;
50161;SDS011;36061;48.116;11.612;2023-02-28T14:52:56;11.17;;;6.83;;
50161;SDS011;36061;48.116;11.612;2023-02-28T14:55:25;11.27;;;7.10;;
50161;SDS011;36061;48.116;11.612;2023-02-28T14:57:56;10.53;;;6.17;;
50161;SDS011;36061;48.116;11.612;2023-02-28T15:00:26;9.33;;;6.50;;
50161;SDS011;36061;48.116;11.612;2023-02-28T15:02:54;9.90;;;5.97;;
50161;SDS011;36061;48.116;11.612;2023-02-28T15:05:24;8.23;;;6.13;;
50161;SDS011;36061;48.116;11.612;2023-02-28T15:08:09;10.07;;;5.93;;
50161;SDS011;36061;48.116;11.612;2023-02-28T15:10:39;9.77;;;5.73;;
50161;SDS011;36061;48.116;11.612;2023-02-28T15:13:11;8.53;;;5.47;;
50161;SDS011;36061;48.116;11.612;2023-02-28T15:15:46;10.90;;;6.50;;
50161;SDS011;36061;48.116;11.612;2023-02-28T15:18:22;9.70;;;6.07;;
50161;SDS011;36061;48.116;11.612;2023-02-28T15:20:55;12.87;;;6.27;;
50161;SDS011;36061;48.116;11.612;2023-02-28T15:23:25;15.63;;;6.77;;
50161;SDS011;36061;48.116;11.612;2023-02-28T15:25:52;11.87;;;6.10;;
50161;SDS011;36061;48.116;11.612;2023-02-28T15:28:21;10.47;;;6.10;;
50161;SDS011;36061;48.116;11.612;2023-02-28T15:30:52;9.63;;;6.33;;
50161;SDS011;36061;48.116;11.612;2023-02-28T15:33:23;10.23;;;6.63;;